Marquette, Michigan
Current Conditions -  °F | °C
As of 12:17 AM on Saturday 29 Nov 2014 (Local Time) from KSAW Reporting Station
Overcast Overcast  
Wind Chill: 14°   Ceiling: 500
Heat Index: 24°   Visibility: 10mi
Dew Point: 22°   Wind: 9mph
Humidity: 94%   Direction: 220°SW
Pressure: 29.81"   Gusts: NA
Location:  46.55°N, 87.41°W
Report Text: KSAW 290517Z AUTO 22008KT 10SM OVC005 M04/M05 A2981 RMK AO2 T10451053
Loading
Personal Weather Stations






























Interactive Weather Map New forecast layout! Learn more

10-Day Weather Forecast

Advertisements
Track Severe Weather on mobile